Terminal Aerodrome Forecast
Issued by NWS

Current Version | Previous Version | Graphics & Text | Print | Product List | Glossary On
Versions: 1 2 3 4 5 6 7 8 9 10 11 12 13 14 15 16 17 18 19 20 21 22 23 24 25 26 27 28
000
FTUS41 KRLX 071133
TAFCKB
TAF
KCKB 071133Z 0712/0812 21006KT P6SM SCT030
      TEMPO 0712/0714 3SM BR
     FM071400 22008G15KT P6SM BKN030
     FM071800 21010G18KT P6SM BKN035
     FM072100 23009KT P6SM BKN040 BKN100
     FM072300 22007KT 3SM TSRA BR BKN035CB BKN080
     FM080300 23005KT 2SM SHRA BR VCTS BKN030CB BKN080=

USA.gov is the U.S. government's official web portal to all federal, state and local government web resources and services.